createdAt,value
2019-03-16T00:02:13.139Z,3.20
2019-03-16T00:04:43.927Z,3.20
2019-03-16T00:07:14.950Z,3.20
2019-03-16T00:09:45.957Z,3.20
2019-03-16T00:12:16.628Z,3.20
2019-03-16T00:14:47.374Z,3.10
2019-03-16T00:17:23.248Z,3.20
2019-03-16T00:19:50.806Z,3.20
2019-03-16T00:22:21.826Z,3.20
2019-03-16T00:24:53.074Z,3.20
2019-03-16T00:27:25.046Z,3.20
2019-03-16T00:29:55.883Z,3.20
2019-03-16T00:32:26.450Z,3.10
2019-03-16T00:34:57.571Z,3.10
2019-03-16T00:37:28.277Z,3.10
2019-03-16T00:39:58.714Z,3.10
2019-03-16T00:42:29.675Z,3.10
2019-03-16T00:45:00.537Z,3.10
2019-03-16T00:47:31.250Z,3.10
2019-03-16T00:50:01.974Z,3.10
2019-03-16T00:52:32.650Z,3.10
2019-03-16T00:55:03.338Z,3.10
2019-03-16T00:57:34.295Z,3.10
2019-03-16T01:00:05.419Z,3.10
2019-03-16T01:02:36.140Z,3.10
2019-03-16T01:05:07.601Z,3.10
2019-03-16T01:07:38.230Z,3.10
2019-03-16T01:10:10.696Z,3.10
2019-03-16T01:12:43.178Z,3.10
2019-03-16T01:15:14.386Z,3.10
2019-03-16T01:17:45.217Z,3.10
2019-03-16T01:20:15.843Z,3.10
2019-03-16T01:22:46.450Z,3.10
2019-03-16T01:25:18.206Z,3.10
2019-03-16T01:27:48.905Z,3.10
2019-03-16T01:30:19.694Z,3.10
2019-03-16T01:32:52.049Z,3.10
2019-03-16T01:35:22.646Z,3.10
2019-03-16T01:37:53.516Z,3.10
2019-03-16T01:40:25.475Z,3.10
2019-03-16T01:42:56.150Z,3.10
2019-03-16T01:45:27.859Z,3.10
2019-03-16T01:48:00.441Z,3.10
2019-03-16T01:50:31.384Z,3.10
2019-03-16T01:53:02.508Z,3.10
2019-03-16T01:55:33.257Z,3.10
2019-03-16T01:58:03.786Z,3.10
2019-03-16T02:00:34.851Z,3.10
2019-03-16T02:03:05.554Z,3.10
2019-03-16T02:05:36.741Z,3.00
2019-03-16T02:08:07.746Z,3.00
2019-03-16T02:10:38.603Z,3.00
2019-03-16T02:13:09.286Z,3.00
2019-03-16T02:15:40.070Z,3.00
2019-03-16T02:18:10.863Z,3.00
2019-03-16T02:20:41.440Z,3.10
2019-03-16T02:23:11.939Z,3.00
2019-03-16T02:25:43.615Z,3.00
2019-03-16T02:28:14.470Z,3.00
2019-03-16T02:30:45.739Z,3.00
2019-03-16T02:33:16.230Z,3.00
2019-03-16T02:35:46.964Z,3.00
2019-03-16T02:38:17.591Z,3.00
2019-03-16T02:40:48.265Z,3.00
2019-03-16T02:43:18.692Z,3.00
2019-03-16T02:45:49.728Z,3.00
2019-03-16T02:48:20.223Z,3.00
2019-03-16T02:50:51.160Z,3.00
2019-03-16T02:53:21.910Z,3.00
2019-03-16T02:55:52.586Z,3.00
2019-03-16T02:58:23.660Z,3.00
2019-03-16T03:00:54.297Z,3.00
2019-03-16T03:03:29.785Z,3.00
2019-03-16T03:05:57.217Z,3.00
2019-03-16T03:08:27.790Z,3.00
2019-03-16T03:10:58.275Z,3.00
2019-03-16T03:13:28.936Z,3.00
2019-03-16T03:15:59.470Z,3.00
2019-03-16T03:18:31.183Z,3.00
2019-03-16T03:21:02.037Z,3.00
2019-03-16T03:23:32.607Z,3.00
2019-03-16T03:26:03.190Z,2.90
2019-03-16T03:28:33.969Z,2.90
2019-03-16T03:31:05.086Z,3.00
2019-03-16T03:33:57.634Z,2.90
2019-03-16T03:36:07.848Z,2.90
2019-03-16T03:38:38.654Z,2.90
2019-03-16T03:41:09.176Z,2.90
2019-03-16T03:43:40.168Z,2.90
2019-03-16T03:46:11.012Z,2.90
2019-03-16T03:48:41.834Z,2.90
2019-03-16T03:51:12.809Z,2.90
2019-03-16T03:53:43.512Z,2.90
2019-03-16T03:56:14.363Z,2.90
2019-03-16T03:58:44.986Z,2.90
2019-03-16T04:01:15.809Z,2.90
2019-03-16T04:03:46.693Z,2.90
2019-03-16T04:06:17.525Z,2.80
2019-03-16T04:08:48.416Z,2.80
2019-03-16T04:11:18.889Z,2.80
2019-03-16T04:13:49.331Z,2.80
2019-03-16T04:16:20.788Z,2.80
2019-03-16T04:18:52.171Z,2.80
2019-03-16T04:21:22.928Z,2.80
2019-03-16T04:23:53.558Z,2.80
2019-03-16T04:26:24.308Z,2.80
2019-03-16T04:28:55.290Z,2.80
2019-03-16T04:31:26.176Z,2.80
2019-03-16T04:33:56.986Z,2.80
2019-03-16T04:36:28.094Z,2.80
2019-03-16T04:39:00.125Z,2.80
2019-03-16T04:41:30.712Z,2.80
2019-03-16T04:44:03.038Z,2.80
2019-03-16T04:46:34.291Z,2.80
2019-03-16T04:49:05.110Z,2.80
2019-03-16T04:51:35.863Z,2.80
2019-03-16T04:54:06.382Z,2.80
2019-03-16T04:56:37.046Z,2.80
2019-03-16T04:59:07.814Z,2.80
2019-03-16T05:01:38.675Z,2.80
2019-03-16T05:04:09.514Z,2.80
2019-03-16T05:06:40.272Z,2.80
2019-03-16T05:09:11.055Z,2.80
2019-03-16T05:11:42.254Z,2.80
2019-03-16T05:14:12.846Z,2.80
2019-03-16T05:16:43.950Z,2.80
2019-03-16T05:19:14.836Z,2.80
2019-03-16T05:21:45.594Z,2.80
2019-03-16T05:24:16.202Z,2.80
2019-03-16T05:26:47.683Z,2.80
2019-03-16T05:29:19.010Z,2.80
2019-03-16T05:31:50.828Z,2.80
2019-03-16T05:34:21.612Z,2.80
2019-03-16T05:36:55.843Z,2.80
2019-03-16T05:39:24.674Z,2.80
2019-03-16T05:41:55.661Z,2.80
2019-03-16T05:44:26.299Z,2.80
2019-03-16T05:46:56.958Z,2.80
2019-03-16T05:52:10.127Z,2.80
2019-03-16T05:54:40.690Z,2.80
2019-03-16T05:57:11.395Z,2.80
2019-03-16T05:59:41.979Z,2.80
2019-03-16T06:02:12.551Z,2.80
2019-03-16T06:04:43.554Z,2.80
2019-03-16T06:07:14.391Z,2.80
2019-03-16T06:09:45.655Z,2.80
2019-03-16T06:12:16.258Z,2.80
2019-03-16T06:14:47.092Z,2.80
2019-03-16T06:17:17.806Z,2.80
2019-03-16T06:19:48.677Z,2.80
2019-03-16T06:22:19.842Z,2.80
2019-03-16T06:24:51.558Z,2.80
2019-03-16T06:27:22.562Z,2.80
2019-03-16T06:29:53.247Z,2.80
2019-03-16T06:32:24.398Z,2.80
2019-03-16T06:34:55.117Z,2.90
2019-03-16T06:37:25.795Z,2.90
2019-03-16T06:39:58.522Z,2.90
2019-03-16T06:42:29.282Z,2.90
2019-03-16T06:44:59.923Z,2.90
2019-03-16T06:47:30.690Z,2.90
2019-03-16T06:50:01.470Z,2.90
2019-03-16T06:52:32.755Z,3.00
2019-03-16T06:55:03.533Z,3.00
2019-03-16T06:57:34.207Z,3.00
2019-03-16T07:00:05.306Z,3.00
2019-03-16T07:02:36.083Z,3.00
2019-03-16T07:05:07.846Z,3.00
2019-03-16T07:07:38.583Z,3.10
2019-03-16T07:10:09.658Z,3.10
2019-03-16T07:12:41.514Z,3.10
2019-03-16T07:15:12.337Z,3.20
2019-03-16T07:17:43.152Z,3.20
2019-03-16T07:20:13.800Z,3.20
2019-03-16T07:22:44.603Z,3.30
2019-03-16T07:25:15.648Z,3.30
2019-03-16T07:27:48.119Z,3.40
2019-03-16T07:30:18.903Z,3.40
2019-03-16T07:32:49.751Z,3.40
2019-03-16T07:35:20.636Z,3.50
2019-03-16T07:37:53.252Z,3.60
2019-03-16T07:40:24.032Z,3.60
2019-03-16T07:42:54.913Z,3.70
2019-03-16T07:45:25.522Z,3.70
2019-03-16T07:47:56.066Z,3.80
2019-03-16T07:50:27.095Z,3.80
2019-03-16T07:52:57.851Z,3.90
2019-03-16T07:55:28.595Z,3.90
2019-03-16T07:57:59.612Z,3.90
2019-03-16T08:00:30.554Z,3.90
2019-03-16T08:03:01.629Z,3.80
2019-03-16T08:05:32.441Z,3.80
2019-03-16T08:08:03.160Z,3.80
2019-03-16T08:10:34.312Z,3.90
2019-03-16T08:13:05.675Z,4.00
2019-03-16T08:15:37.575Z,4.00
2019-03-16T08:18:08.294Z,4.10
2019-03-16T08:20:39.597Z,4.20
2019-03-16T08:23:10.394Z,4.20
2019-03-16T08:25:41.315Z,4.20
2019-03-16T08:28:12.145Z,4.20
2019-03-16T08:30:42.963Z,4.30
2019-03-16T08:33:13.530Z,4.30
2019-03-16T08:35:44.196Z,4.30
2019-03-16T08:38:15.147Z,4.40
2019-03-16T08:40:46.146Z,4.40
2019-03-16T08:43:17.139Z,4.40
2019-03-16T08:45:47.993Z,4.30
2019-03-16T08:48:23.216Z,4.30
2019-03-16T08:50:51.580Z,4.30
2019-03-16T08:53:23.012Z,4.30
2019-03-16T08:55:53.821Z,4.30
2019-03-16T08:58:24.426Z,4.20
2019-03-16T09:00:55.190Z,4.20
2019-03-16T09:03:25.980Z,4.20
2019-03-16T09:05:57.073Z,4.30
2019-03-16T09:08:28.294Z,4.30
2019-03-16T09:10:59.018Z,4.30
2019-03-16T09:13:29.759Z,4.20
2019-03-16T09:16:00.496Z,4.20
2019-03-16T09:18:32.236Z,4.20
2019-03-16T09:21:02.860Z,4.20
2019-03-16T09:23:33.591Z,4.10
2019-03-16T09:26:04.183Z,4.20
2019-03-16T09:28:35.272Z,4.20
2019-03-16T09:31:05.946Z,4.20
2019-03-16T09:33:36.743Z,4.20
2019-03-16T09:36:07.613Z,4.10
2019-03-16T09:38:38.724Z,4.20
2019-03-16T09:41:09.807Z,4.20
2019-03-16T09:43:40.523Z,4.20
2019-03-16T09:46:11.285Z,4.20
2019-03-16T09:48:41.736Z,4.30
2019-03-16T09:51:12.317Z,4.30
2019-03-16T09:53:42.775Z,4.40
2019-03-16T09:56:13.365Z,4.40
2019-03-16T09:58:43.924Z,4.50
2019-03-16T10:01:15.519Z,4.50
2019-03-16T10:03:46.397Z,4.50
2019-03-16T10:06:17.031Z,4.50
2019-03-16T10:08:48.058Z,4.50
2019-03-16T10:11:18.954Z,4.50
2019-03-16T10:13:49.849Z,4.50
2019-03-16T10:16:20.934Z,4.40
2019-03-16T10:18:51.602Z,4.40
2019-03-16T10:21:22.667Z,4.40
2019-03-16T10:23:53.227Z,4.40
2019-03-16T10:26:23.959Z,4.40
2019-03-16T10:28:55.983Z,4.40
2019-03-16T10:31:26.917Z,4.50
2019-03-16T10:33:57.975Z,4.40
2019-03-16T10:36:28.690Z,4.50
2019-03-16T10:38:59.441Z,4.50
2019-03-16T10:41:30.242Z,4.50
2019-03-16T10:44:01.013Z,4.50
2019-03-16T10:46:31.555Z,4.40
2019-03-16T10:49:02.699Z,4.40
2019-03-16T10:51:33.534Z,4.40
2019-03-16T10:54:04.445Z,4.40
2019-03-16T10:56:35.337Z,4.40
2019-03-16T10:59:06.037Z,4.40
2019-03-16T11:01:37.921Z,4.40
2019-03-16T11:04:08.535Z,4.50
2019-03-16T11:06:39.193Z,4.50
2019-03-16T11:09:10.090Z,4.50
2019-03-16T11:11:40.848Z,4.50
2019-03-16T11:14:11.362Z,4.50
2019-03-16T11:16:42.127Z,4.60
2019-03-16T11:19:12.626Z,4.60
2019-03-16T11:21:43.270Z,4.60
2019-03-16T11:24:13.790Z,4.60
2019-03-16T11:26:44.372Z,4.60
2019-03-16T11:29:15.454Z,4.60
2019-03-16T11:31:46.415Z,4.70
2019-03-16T11:34:17.330Z,4.70
2019-03-16T11:36:48.256Z,4.70
2019-03-16T11:39:18.881Z,4.70
2019-03-16T11:41:49.679Z,4.70
2019-03-16T11:44:20.474Z,4.70
2019-03-16T11:46:51.029Z,4.70
2019-03-16T11:49:21.766Z,4.70
2019-03-16T11:51:52.400Z,4.70
2019-03-16T11:54:23.365Z,4.80
2019-03-16T11:56:54.400Z,4.80
2019-03-16T11:59:25.966Z,4.90
2019-03-16T12:02:05.088Z,4.90
2019-03-16T12:04:28.867Z,5.00
2019-03-16T12:06:59.570Z,5.20
2019-03-16T12:09:33.645Z,5.40
2019-03-16T12:12:04.351Z,5.50
2019-03-16T12:14:35.175Z,5.60
2019-03-16T12:17:06.146Z,5.70
2019-03-16T12:19:37.531Z,5.80
2019-03-16T12:22:07.974Z,5.90
2019-03-16T12:24:38.691Z,6.00
2019-03-16T12:27:09.791Z,6.10
2019-03-16T12:29:40.787Z,6.10
2019-03-16T12:32:11.430Z,6.10
2019-03-16T12:34:42.262Z,6.10
2019-03-16T12:37:13.088Z,6.10
2019-03-16T12:39:43.887Z,6.10
2019-03-16T12:42:15.923Z,6.10
2019-03-16T12:44:46.742Z,6.00
2019-03-16T12:47:17.347Z,6.00
2019-03-16T12:49:48.002Z,6.00
2019-03-16T12:52:18.724Z,6.00
2019-03-16T12:54:49.810Z,5.90
2019-03-16T12:57:20.831Z,5.90
2019-03-16T12:59:52.033Z,5.80
2019-03-16T13:02:26.394Z,5.80
2019-03-16T13:04:59.939Z,5.70
2019-03-16T13:07:31.158Z,5.70
2019-03-16T13:10:03.272Z,5.60
2019-03-16T13:12:34.242Z,5.60
2019-03-16T13:15:05.301Z,5.50
2019-03-16T13:17:36.220Z,5.50
2019-03-16T13:20:07.247Z,5.50
2019-03-16T13:22:39.738Z,5.50
2019-03-16T13:25:10.562Z,5.40
2019-03-16T13:27:41.212Z,5.40
2019-03-16T13:30:13.066Z,5.40
2019-03-16T13:32:43.800Z,5.40
2019-03-16T13:35:16.761Z,5.40
2019-03-16T13:37:47.835Z,5.40
2019-03-16T13:40:19.922Z,5.30
2019-03-16T13:42:50.633Z,5.30
2019-03-16T13:45:21.343Z,5.20
2019-03-16T13:47:52.174Z,5.20
2019-03-16T13:50:23.367Z,5.30
2019-03-16T13:52:54.297Z,5.40
2019-03-16T13:55:25.403Z,5.40
2019-03-16T13:57:56.375Z,5.50
2019-03-16T14:00:27.023Z,5.40
2019-03-16T14:02:58.200Z,5.40
2019-03-16T14:05:28.883Z,5.40
2019-03-16T14:07:59.533Z,5.40
2019-03-16T14:10:31.884Z,5.40
2019-03-16T14:13:02.747Z,5.40
2019-03-16T14:15:33.458Z,5.40
2019-03-16T14:18:04.735Z,5.40
2019-03-16T14:20:35.504Z,5.40
2019-03-16T14:23:06.725Z,5.40
2019-03-16T14:25:37.831Z,5.40
2019-03-16T14:28:08.577Z,5.40
2019-03-16T14:30:41.299Z,5.40
2019-03-16T14:33:11.912Z,5.30
2019-03-16T14:35:42.440Z,5.30
2019-03-16T14:38:13.315Z,5.20
2019-03-16T14:40:44.063Z,5.20
2019-03-16T14:43:15.223Z,5.10
2019-03-16T14:45:48.853Z,5.10
2019-03-16T14:48:18.809Z,5.00
2019-03-16T14:50:49.307Z,5.00
2019-03-16T14:53:19.935Z,4.90
2019-03-16T14:55:50.851Z,4.90
2019-03-16T14:58:21.560Z,4.90
2019-03-16T15:00:52.207Z,4.80
2019-03-16T15:03:23.547Z,4.80
2019-03-16T15:05:54.281Z,4.80
2019-03-16T15:08:25.042Z,4.70
2019-03-16T15:10:55.707Z,4.70
2019-03-16T15:13:27.120Z,4.70
2019-03-16T15:15:57.675Z,4.60
2019-03-16T15:18:28.246Z,4.60
2019-03-16T15:20:59.300Z,4.60
2019-03-16T15:23:30.364Z,4.60
2019-03-16T15:26:02.735Z,4.60
2019-03-16T15:28:33.328Z,4.60
2019-03-16T15:31:04.287Z,4.60
2019-03-16T15:33:35.331Z,4.60
2019-03-16T15:36:06.074Z,4.60
2019-03-16T15:38:37.911Z,4.50
2019-03-16T15:41:08.669Z,4.50
2019-03-16T15:43:39.602Z,4.50
2019-03-16T15:46:10.752Z,4.50
2019-03-16T15:48:41.346Z,4.40
2019-03-16T15:51:12.049Z,4.40
2019-03-16T15:53:42.630Z,4.30
2019-03-16T15:56:13.181Z,4.30
2019-03-16T15:58:43.952Z,4.30
2019-03-16T16:01:14.678Z,4.30
2019-03-16T16:03:45.318Z,4.30
2019-03-16T16:06:15.899Z,4.30
2019-03-16T16:08:47.591Z,4.30
2019-03-16T16:11:18.513Z,4.30
2019-03-16T16:13:49.339Z,4.30
2019-03-16T16:16:21.546Z,4.40
2019-03-16T16:18:52.642Z,4.40
2019-03-16T16:21:23.319Z,4.40
2019-03-16T16:23:54.827Z,4.40
2019-03-16T16:26:25.474Z,4.40
2019-03-16T16:28:56.027Z,4.40
2019-03-16T16:31:27.022Z,4.40
2019-03-16T16:33:58.174Z,4.40
2019-03-16T16:36:28.934Z,4.40
2019-03-16T16:39:00.702Z,4.40
2019-03-16T16:41:31.510Z,4.30
2019-03-16T16:44:02.842Z,4.30
2019-03-16T16:46:33.630Z,4.30
2019-03-16T16:49:05.334Z,4.20
2019-03-16T16:51:36.222Z,4.20
2019-03-16T16:54:06.794Z,4.20
2019-03-16T16:56:37.778Z,4.10
2019-03-16T16:59:08.503Z,4.10
2019-03-16T17:01:39.061Z,4.10
2019-03-16T17:04:09.798Z,4.10
2019-03-16T17:06:40.599Z,4.10
2019-03-16T17:09:12.908Z,4.10
2019-03-16T17:11:45.065Z,4.10
2019-03-16T17:14:17.038Z,4.00
2019-03-16T17:16:48.184Z,4.00
2019-03-16T17:19:19.455Z,4.00
2019-03-16T17:21:50.092Z,4.00
2019-03-16T17:24:20.832Z,4.00
2019-03-16T17:26:51.522Z,4.00
2019-03-16T17:29:22.782Z,4.00
2019-03-16T17:31:54.717Z,4.00
2019-03-16T17:34:25.460Z,4.00
2019-03-16T17:36:56.283Z,3.90
2019-03-16T17:39:28.171Z,3.90
2019-03-16T17:41:58.866Z,3.90
2019-03-16T17:44:29.521Z,3.90
2019-03-16T17:47:00.378Z,3.90
2019-03-16T17:49:31.264Z,3.90
2019-03-16T17:52:01.983Z,3.90
2019-03-16T17:54:33.810Z,3.80
2019-03-16T17:57:04.596Z,3.80
2019-03-16T17:59:35.844Z,3.80
2019-03-16T18:02:06.618Z,3.80
2019-03-16T18:04:37.342Z,3.90
2019-03-16T18:07:07.985Z,3.90
2019-03-16T18:09:42.648Z,3.90
2019-03-16T18:12:14.783Z,3.90
2019-03-16T18:14:45.830Z,3.90
2019-03-16T18:17:16.403Z,3.90
2019-03-16T18:19:49.043Z,3.90
2019-03-16T18:22:20.682Z,3.90
2019-03-16T18:24:51.648Z,3.90
2019-03-16T18:27:24.136Z,3.90
2019-03-16T18:29:54.906Z,3.80
2019-03-16T18:32:25.867Z,3.80
2019-03-16T18:34:56.455Z,3.70
2019-03-16T18:37:27.446Z,3.70
2019-03-16T18:39:58.535Z,3.70
2019-03-16T18:42:29.226Z,3.70
2019-03-16T18:45:00.474Z,3.70
2019-03-16T18:47:31.216Z,3.70
2019-03-16T18:50:01.897Z,3.70
2019-03-16T18:52:32.878Z,3.70
2019-03-16T18:55:03.709Z,3.70
2019-03-16T18:57:34.353Z,3.70
2019-03-16T19:00:05.458Z,3.70
2019-03-16T19:02:36.156Z,3.70
2019-03-16T19:05:07.658Z,3.70
2019-03-16T19:07:38.234Z,3.70
2019-03-16T19:10:10.712Z,3.70
2019-03-16T19:12:42.622Z,3.60
2019-03-16T19:15:14.146Z,3.60
2019-03-16T19:17:57.537Z,3.60
2019-03-16T19:20:17.677Z,3.60
2019-03-16T19:22:49.476Z,3.50
2019-03-16T19:25:20.267Z,3.50
2019-03-16T19:27:51.149Z,3.50
2019-03-16T19:30:22.212Z,3.50
2019-03-16T19:32:52.844Z,3.50
2019-03-16T19:35:23.700Z,3.50
2019-03-16T19:37:54.708Z,3.50
2019-03-16T19:40:25.850Z,3.50
2019-03-16T19:42:57.013Z,3.50
2019-03-16T19:45:29.162Z,3.50
2019-03-16T19:48:02.935Z,3.50
2019-03-16T19:50:32.447Z,3.50
2019-03-16T19:53:04.342Z,3.50
2019-03-16T19:55:35.116Z,3.40
2019-03-16T19:58:05.619Z,3.40
2019-03-16T20:00:36.375Z,3.40
2019-03-16T20:03:06.963Z,3.40
2019-03-16T20:05:37.799Z,3.40
2019-03-16T20:08:08.339Z,3.40
2019-03-16T20:10:39.580Z,3.30
2019-03-16T20:13:10.352Z,3.40
2019-03-16T20:15:43.805Z,3.30
2019-03-16T20:18:14.577Z,3.30
2019-03-16T20:20:45.424Z,3.30
2019-03-16T20:23:16.178Z,3.30
2019-03-16T20:25:48.323Z,3.30
2019-03-16T20:28:19.070Z,3.30
2019-03-16T20:30:49.887Z,3.20
2019-03-16T20:33:20.934Z,3.20
2019-03-16T20:35:51.684Z,3.20
2019-03-16T20:38:22.720Z,3.20
2019-03-16T20:40:53.635Z,3.20
2019-03-16T20:43:24.230Z,3.20
2019-03-16T20:45:54.815Z,3.20
2019-03-16T20:48:25.842Z,3.20
2019-03-16T20:50:57.083Z,3.20
2019-03-16T20:53:28.786Z,3.20
2019-03-16T20:55:59.384Z,3.20
2019-03-16T20:58:30.242Z,3.10
2019-03-16T21:01:01.431Z,3.10
2019-03-16T21:03:32.106Z,3.10
2019-03-16T21:06:03.020Z,3.10
2019-03-16T21:08:33.731Z,3.10
2019-03-16T21:11:04.931Z,3.10
2019-03-16T21:13:36.485Z,3.10
2019-03-16T21:16:11.297Z,3.10
2019-03-16T21:18:41.925Z,3.10
2019-03-16T21:21:12.784Z,3.10
2019-03-16T21:23:49.094Z,3.10
2019-03-16T21:26:20.228Z,3.10
2019-03-16T21:28:50.922Z,3.10
2019-03-16T21:31:21.855Z,3.10
2019-03-16T21:33:53.615Z,3.10
2019-03-16T21:36:24.763Z,3.00
2019-03-16T21:38:55.623Z,3.00
2019-03-16T21:41:26.626Z,3.00
2019-03-16T21:43:57.574Z,3.00
2019-03-16T21:46:28.149Z,3.00
2019-03-16T21:48:58.833Z,3.00
2019-03-16T21:51:30.757Z,3.00
2019-03-16T21:54:01.401Z,3.00
2019-03-16T21:56:32.358Z,3.00
2019-03-16T21:59:03.006Z,3.00
2019-03-16T22:01:33.820Z,3.00
2019-03-16T22:04:05.213Z,3.00
2019-03-16T22:06:35.930Z,3.00
2019-03-16T22:09:08.074Z,3.00
2019-03-16T22:11:38.707Z,3.00
2019-03-16T22:14:09.485Z,3.00
2019-03-16T22:16:40.308Z,2.90
2019-03-16T22:19:11.654Z,2.90
2019-03-16T22:21:42.376Z,2.90
2019-03-16T22:24:13.203Z,2.90
2019-03-16T22:26:44.262Z,2.90
2019-03-16T22:29:15.937Z,2.90
2019-03-16T22:31:46.874Z,2.90
2019-03-16T22:34:17.602Z,2.90
2019-03-16T22:36:48.495Z,2.90
2019-03-16T22:39:19.215Z,2.90
2019-03-16T22:41:52.069Z,2.90
2019-03-16T22:44:22.906Z,2.90
2019-03-16T22:46:53.981Z,2.90
2019-03-16T22:49:24.546Z,2.90
2019-03-16T22:51:55.199Z,2.90
2019-03-16T22:54:26.216Z,2.90
2019-03-16T22:56:57.070Z,2.90
2019-03-16T22:59:27.807Z,2.90
2019-03-16T23:01:58.846Z,2.90
2019-03-16T23:04:29.579Z,2.90
2019-03-16T23:07:00.642Z,2.90
2019-03-16T23:09:33.263Z,2.90
2019-03-16T23:12:04.216Z,2.90
2019-03-16T23:14:35.077Z,2.90
2019-03-16T23:17:06.131Z,2.80
2019-03-16T23:19:37.039Z,2.80
2019-03-16T23:22:07.797Z,2.80
2019-03-16T23:24:38.756Z,2.80
2019-03-16T23:27:09.672Z,2.80
2019-03-16T23:29:41.241Z,2.80
2019-03-16T23:32:12.169Z,2.80
2019-03-16T23:34:44.570Z,2.90
2019-03-16T23:37:16.837Z,2.80
2019-03-16T23:39:47.497Z,2.80
2019-03-16T23:42:18.165Z,2.80
2019-03-16T23:44:48.798Z,2.80
2019-03-16T23:47:19.376Z,2.80
2019-03-16T23:49:50.251Z,2.80
2019-03-16T23:52:21.260Z,2.80
2019-03-16T23:54:52.498Z,2.80
2019-03-16T23:57:25.660Z,2.80
2019-03-16T23:59:56.588Z,2.80
